createdAt,value
2024-01-29T00:01:21.713Z,11.73
2024-01-29T00:03:50.463Z,6.33
2024-01-29T00:06:20.422Z,12.90
2024-01-29T00:08:49.094Z,11.80
2024-01-29T00:11:19.872Z,12.43
2024-01-29T00:13:48.598Z,10.53
2024-01-29T00:16:17.144Z,11.53
2024-01-29T00:18:45.716Z,10.13
2024-01-29T00:21:14.927Z,10.23
2024-01-29T00:23:44.776Z,10.83
2024-01-29T00:26:14.959Z,12.37
2024-01-29T00:28:43.589Z,9.87
2024-01-29T00:31:12.035Z,11.13
2024-01-29T00:33:40.851Z,10.47
2024-01-29T00:36:09.630Z,14.80
2024-01-29T00:38:38.114Z,11.83
2024-01-29T00:41:10.928Z,9.10
2024-01-29T00:43:39.319Z,11.47
2024-01-29T00:46:07.903Z,11.80
2024-01-29T00:48:36.757Z,9.47
2024-01-29T00:51:05.372Z,10.30
2024-01-29T00:53:34.054Z,10.03
2024-01-29T00:56:02.495Z,12.70
2024-01-29T00:58:32.415Z,5.73
2024-01-29T01:01:01.052Z,9.43
2024-01-29T01:03:29.677Z,10.10
2024-01-29T01:05:58.298Z,7.60
2024-01-29T01:08:26.757Z,10.17
2024-01-29T01:10:55.245Z,6.47
2024-01-29T01:13:25.962Z,11.30
2024-01-29T01:15:55.889Z,10.33
2024-01-29T01:18:24.915Z,10.80
2024-01-29T01:20:53.616Z,9.63
2024-01-29T01:23:22.029Z,11.33
2024-01-29T01:25:50.507Z,8.73
2024-01-29T01:28:18.940Z,10.93
2024-01-29T01:30:47.506Z,9.13
2024-01-29T01:33:17.548Z,11.17
2024-01-29T01:35:47.557Z,10.13
2024-01-29T01:38:16.145Z,12.07
2024-01-29T01:40:45.944Z,9.27
2024-01-29T01:43:22.103Z,9.50
2024-01-29T01:45:58.768Z,7.47
2024-01-29T01:48:28.667Z,8.73
2024-01-29T01:50:57.361Z,10.70
2024-01-29T01:53:26.266Z,9.13
2024-01-29T01:55:55.065Z,10.10
2024-01-29T01:58:25.466Z,10.73
2024-01-29T02:00:54.034Z,12.97
2024-01-29T02:03:22.741Z,11.47
2024-01-29T02:05:52.666Z,11.13
2024-01-29T02:08:21.261Z,9.47
2024-01-29T02:10:51.198Z,10.77
2024-01-29T02:13:19.687Z,11.60
2024-01-29T02:15:48.316Z,10.90
2024-01-29T02:18:16.878Z,13.17
2024-01-29T02:20:47.205Z,12.07
2024-01-29T02:23:17.076Z,8.87
2024-01-29T02:25:45.523Z,10.80
2024-01-29T02:28:13.970Z,10.07
2024-01-29T02:30:42.563Z,6.57
2024-01-29T02:33:11.118Z,13.70
2024-01-29T02:35:39.861Z,9.73
2024-01-29T02:38:08.318Z,10.17
2024-01-29T02:40:38.265Z,5.50
2024-01-29T02:43:06.834Z,9.93
2024-01-29T02:45:35.402Z,12.63
2024-01-29T02:48:04.196Z,9.23
2024-01-29T02:50:32.750Z,10.00
2024-01-29T02:53:01.204Z,3.43
2024-01-29T02:55:29.658Z,10.30
2024-01-29T02:57:59.724Z,11.53
2024-01-29T03:00:28.959Z,5.67
2024-01-29T03:02:58.375Z,7.90
2024-01-29T03:05:27.137Z,9.33
2024-01-29T03:07:55.702Z,9.27
2024-01-29T03:10:24.254Z,4.00
2024-01-29T03:12:53.827Z,2.63
2024-01-29T03:15:23.802Z,1.93
2024-01-29T03:17:52.485Z,2.87
2024-01-29T03:20:20.905Z,8.93
2024-01-29T03:22:49.302Z,9.50
2024-01-29T03:25:17.945Z,8.97
2024-01-29T03:27:46.448Z,8.60
2024-01-29T03:30:16.337Z,4.30
2024-01-29T03:32:46.764Z,10.43
2024-01-29T03:35:15.644Z,12.60
2024-01-29T03:37:46.707Z,8.47
2024-01-29T03:40:16.121Z,11.43
2024-01-29T03:42:44.723Z,8.40
2024-01-29T03:45:13.143Z,11.13
2024-01-29T03:47:41.641Z,5.53
2024-01-29T03:50:12.354Z,11.83
2024-01-29T03:52:40.805Z,8.23
2024-01-29T03:55:10.478Z,6.90
2024-01-29T03:57:39.654Z,9.43
2024-01-29T04:00:10.356Z,8.73
2024-01-29T04:02:38.997Z,6.50
2024-01-29T04:05:07.823Z,10.80
2024-01-29T04:07:38.032Z,5.67
2024-01-29T04:10:06.996Z,4.77
2024-01-29T04:12:35.541Z,8.23
2024-01-29T04:15:04.053Z,5.90
2024-01-29T04:17:32.542Z,9.93
2024-01-29T04:20:01.011Z,10.10
2024-01-29T04:22:29.576Z,7.37
2024-01-29T04:25:01.409Z,8.37
2024-01-29T04:27:30.194Z,7.70
2024-01-29T04:29:58.871Z,11.40
2024-01-29T04:32:27.449Z,9.40
2024-01-29T04:34:55.965Z,2.60
2024-01-29T04:37:26.214Z,1.50
2024-01-29T04:39:54.947Z,5.00
2024-01-29T04:42:24.917Z,0.80
2024-01-29T04:44:53.390Z,3.67
2024-01-29T04:47:22.069Z,8.13
2024-01-29T04:49:50.524Z,9.47
2024-01-29T04:52:19.055Z,0.80
2024-01-29T04:54:47.530Z,1.33
2024-01-29T04:57:16.154Z,1.47
2024-01-29T04:59:45.995Z,3.23
2024-01-29T05:02:14.475Z,10.53
2024-01-29T05:04:43.017Z,9.30
2024-01-29T05:07:11.654Z,6.90
2024-01-29T05:09:41.018Z,9.73
2024-01-29T05:12:09.739Z,6.77
2024-01-29T05:14:38.182Z,1.97
2024-01-29T05:17:08.215Z,5.70
2024-01-29T05:19:36.704Z,2.87
2024-01-29T05:22:05.270Z,0.90
2024-01-29T05:24:33.797Z,4.87
2024-01-29T05:27:02.216Z,6.57
2024-01-29T05:29:33.228Z,10.03
2024-01-29T05:32:01.970Z,9.33
2024-01-29T05:34:31.923Z,5.13
2024-01-29T05:37:00.525Z,9.90
2024-01-29T05:39:29.278Z,9.67
2024-01-29T05:41:57.751Z,7.30
2024-01-29T05:44:26.198Z,8.93
2024-01-29T05:46:54.679Z,11.80
2024-01-29T05:49:23.970Z,14.67
2024-01-29T05:51:54.126Z,12.57
2024-01-29T05:54:22.739Z,15.13
2024-01-29T05:56:51.879Z,9.50
2024-01-29T05:59:20.697Z,12.30
2024-01-29T06:01:49.461Z,12.60
2024-01-29T06:04:18.144Z,11.20
2024-01-29T06:06:46.788Z,12.17
2024-01-29T06:09:16.811Z,13.60
2024-01-29T06:11:45.469Z,9.67
2024-01-29T06:14:16.790Z,13.90
2024-01-29T06:16:45.756Z,15.20
2024-01-29T06:19:16.820Z,13.43
2024-01-29T06:21:45.624Z,14.30
2024-01-29T06:24:14.313Z,12.33
2024-01-29T06:26:46.451Z,6.80
2024-01-29T06:29:16.610Z,12.40
2024-01-29T06:31:45.049Z,14.27
2024-01-29T06:34:16.185Z,14.63
2024-01-29T06:36:46.668Z,12.60
2024-01-29T06:39:15.368Z,8.30
2024-01-29T06:41:47.821Z,8.90
2024-01-29T06:44:16.287Z,10.37
2024-01-29T06:46:44.743Z,3.57
2024-01-29T06:49:27.043Z,10.53
2024-01-29T06:51:55.496Z,12.93
2024-01-29T06:54:24.353Z,8.00
2024-01-29T06:56:56.520Z,13.17
2024-01-29T06:59:27.240Z,0.80
2024-01-29T07:02:00.410Z,2.33
2024-01-29T07:04:29.141Z,2.67
2024-01-29T07:06:57.747Z,0.90
2024-01-29T07:09:27.389Z,5.10
2024-01-29T07:11:59.360Z,0.90
2024-01-29T07:14:28.137Z,12.20
2024-01-29T07:16:56.733Z,12.13
2024-01-29T07:19:28.545Z,7.80
2024-01-29T07:21:58.688Z,11.67
2024-01-29T07:24:30.465Z,14.47
2024-01-29T07:27:00.907Z,8.97
2024-01-29T07:29:31.413Z,13.60
2024-01-29T07:32:00.086Z,14.53
2024-01-29T07:34:29.144Z,8.53
2024-01-29T07:36:57.841Z,12.47
2024-01-29T07:39:26.465Z,10.77
2024-01-29T07:42:02.303Z,1.20
2024-01-29T07:44:32.266Z,4.50
2024-01-29T07:47:00.709Z,0.97
2024-01-29T07:49:33.352Z,8.07
2024-01-29T07:52:01.934Z,10.53
2024-01-29T07:54:30.558Z,1.00
2024-01-29T07:56:59.010Z,3.17
2024-01-29T07:59:28.115Z,5.70
2024-01-29T08:01:58.460Z,13.30
2024-01-29T08:04:28.282Z,12.70
2024-01-29T08:06:57.363Z,11.50
2024-01-29T08:09:27.611Z,13.77
2024-01-29T08:11:56.388Z,12.40
2024-01-29T08:14:25.169Z,11.67
2024-01-29T08:16:53.718Z,9.70
2024-01-29T08:19:27.780Z,17.60
2024-01-29T08:21:59.207Z,11.13
2024-01-29T08:24:28.172Z,11.60
2024-01-29T08:26:56.855Z,12.63
2024-01-29T08:29:25.426Z,4.23
2024-01-29T08:31:55.114Z,7.80
2024-01-29T08:34:27.875Z,12.93
2024-01-29T08:36:59.931Z,13.57
2024-01-29T08:39:28.755Z,9.03
2024-01-29T08:41:57.374Z,10.57
2024-01-29T08:44:26.769Z,11.23
2024-01-29T08:46:57.474Z,7.27
2024-01-29T08:49:27.613Z,6.47
2024-01-29T08:51:56.257Z,9.30
2024-01-29T08:54:24.926Z,16.10
2024-01-29T08:56:54.524Z,14.57
2024-01-29T08:59:23.036Z,11.60
2024-01-29T09:01:51.902Z,12.10
2024-01-29T09:04:20.815Z,3.27
2024-01-29T09:06:50.718Z,5.10
2024-01-29T09:09:19.362Z,4.90
2024-01-29T09:11:47.761Z,8.50
2024-01-29T09:14:16.542Z,11.43
2024-01-29T09:16:45.187Z,13.40
2024-01-29T09:19:17.565Z,16.10
2024-01-29T09:21:51.654Z,9.17
2024-01-29T09:24:20.695Z,7.40
2024-01-29T09:26:49.244Z,16.27
2024-01-29T09:29:17.781Z,11.87
2024-01-29T09:31:46.600Z,16.10
2024-01-29T09:34:15.844Z,13.23
2024-01-29T09:36:44.649Z,12.40
2024-01-29T09:39:14.850Z,10.63
2024-01-29T09:41:44.459Z,14.03
2024-01-29T09:44:12.084Z,11.50
2024-01-29T09:46:42.185Z,15.33
2024-01-29T09:49:11.274Z,13.83
2024-01-29T09:51:40.607Z,13.27
2024-01-29T09:54:09.156Z,10.27
2024-01-29T09:56:42.420Z,11.00
2024-01-29T09:59:11.663Z,14.97
2024-01-29T10:01:40.932Z,13.50
2024-01-29T10:04:09.752Z,15.37
2024-01-29T10:06:39.193Z,13.40
2024-01-29T10:09:08.014Z,14.77
2024-01-29T10:11:36.865Z,8.57
2024-01-29T10:14:07.563Z,3.17
2024-01-29T10:16:36.080Z,14.17
2024-01-29T10:19:05.719Z,15.17
2024-01-29T10:21:44.877Z,17.50
2024-01-29T10:24:17.737Z,16.87
2024-01-29T10:26:47.185Z,17.07
2024-01-29T10:29:20.169Z,16.20
2024-01-29T10:31:51.763Z,16.03
2024-01-29T10:34:23.183Z,17.33
2024-01-29T10:36:53.156Z,2.10
2024-01-29T10:39:24.047Z,15.50
2024-01-29T10:41:55.106Z,9.83
2024-01-29T10:44:27.165Z,7.37
2024-01-29T10:47:01.291Z,16.87
2024-01-29T10:49:30.651Z,12.90
2024-01-29T10:52:02.749Z,14.17
2024-01-29T10:54:32.033Z,12.80
2024-01-29T10:57:01.603Z,11.30
2024-01-29T10:59:32.017Z,10.67
2024-01-29T11:02:04.786Z,9.07
2024-01-29T11:04:38.399Z,14.90
2024-01-29T11:07:11.263Z,12.97
2024-01-29T11:09:40.226Z,7.90
2024-01-29T11:12:11.261Z,9.37
2024-01-29T11:14:41.315Z,10.60
2024-01-29T11:17:13.275Z,16.63
2024-01-29T11:19:42.477Z,12.77
2024-01-29T11:22:17.296Z,15.20
2024-01-29T11:24:49.221Z,2.00
2024-01-29T11:27:18.168Z,2.50
2024-01-29T11:29:51.022Z,14.97
2024-01-29T11:32:25.959Z,8.87
2024-01-29T11:34:58.066Z,15.20
2024-01-29T11:37:30.904Z,14.43
2024-01-29T11:39:59.607Z,13.57
2024-01-29T11:42:28.350Z,2.63
2024-01-29T11:44:59.112Z,4.00
2024-01-29T11:47:27.913Z,15.73
2024-01-29T11:49:56.408Z,15.57
2024-01-29T11:52:25.241Z,15.53
2024-01-29T11:54:54.148Z,8.57
2024-01-29T11:57:25.418Z,18.67
2024-01-29T11:59:54.063Z,10.13
2024-01-29T12:02:24.123Z,14.53
2024-01-29T12:04:53.005Z,16.63
2024-01-29T12:07:21.776Z,8.80
2024-01-29T12:09:50.955Z,16.87
2024-01-29T12:12:21.454Z,16.63
2024-01-29T12:14:51.185Z,18.13
2024-01-29T12:17:23.717Z,14.87
2024-01-29T12:19:54.024Z,7.43
2024-01-29T12:22:22.811Z,15.20
2024-01-29T12:24:54.802Z,17.17
2024-01-29T12:27:23.410Z,17.00
2024-01-29T12:29:53.737Z,14.00
2024-01-29T12:32:22.301Z,5.47
2024-01-29T12:34:51.942Z,20.13
2024-01-29T12:37:27.115Z,10.20
2024-01-29T12:39:59.905Z,12.47
2024-01-29T12:42:28.653Z,8.83
2024-01-29T12:44:59.986Z,13.17
2024-01-29T12:47:28.759Z,11.10
2024-01-29T12:49:57.502Z,10.80
2024-01-29T12:52:30.018Z,17.13
2024-01-29T12:54:58.839Z,16.70
2024-01-29T12:57:27.461Z,13.87
2024-01-29T12:59:56.106Z,14.00
2024-01-29T13:02:24.600Z,15.37
2024-01-29T13:04:53.501Z,15.57
2024-01-29T13:07:22.048Z,13.13
2024-01-29T13:09:53.494Z,11.07
2024-01-29T13:12:22.770Z,16.57
2024-01-29T13:14:51.443Z,13.87
2024-01-29T13:17:20.109Z,17.37
2024-01-29T13:19:48.880Z,19.63
2024-01-29T13:22:17.589Z,10.47
2024-01-29T13:24:48.803Z,15.10
2024-01-29T13:27:18.935Z,19.17
2024-01-29T13:29:47.803Z,16.17
2024-01-29T13:32:16.441Z,12.80
2024-01-29T13:34:45.215Z,10.77
2024-01-29T13:37:13.856Z,16.60
2024-01-29T13:39:45.688Z,17.03
2024-01-29T13:42:14.271Z,11.10
2024-01-29T13:44:44.514Z,17.33
2024-01-29T13:47:14.687Z,15.33
2024-01-29T13:49:43.299Z,19.27
2024-01-29T13:52:12.479Z,16.47
2024-01-29T13:54:45.551Z,15.43
2024-01-29T13:57:14.510Z,16.50
2024-01-29T13:59:47.087Z,15.87
2024-01-29T14:02:15.780Z,18.07
2024-01-29T14:04:44.427Z,18.70
2024-01-29T14:07:13.275Z,15.23
2024-01-29T14:09:41.930Z,19.90
2024-01-29T14:12:10.823Z,19.33
2024-01-29T14:14:46.447Z,13.30
2024-01-29T14:17:18.354Z,12.00
2024-01-29T14:19:46.928Z,16.90
2024-01-29T14:22:15.556Z,13.60
2024-01-29T14:24:44.136Z,14.33
2024-01-29T14:27:16.815Z,17.30
2024-01-29T14:29:45.443Z,4.23
2024-01-29T14:32:15.227Z,15.07
2024-01-29T14:34:46.436Z,10.80
2024-01-29T14:37:17.737Z,11.43
2024-01-29T14:39:49.200Z,15.10
2024-01-29T14:42:17.754Z,14.97
2024-01-29T14:44:46.439Z,14.60
2024-01-29T14:47:18.049Z,7.27
2024-01-29T14:49:48.354Z,18.87
2024-01-29T14:52:17.012Z,15.70
2024-01-29T14:54:45.768Z,15.97
2024-01-29T14:57:14.436Z,14.93
2024-01-29T14:59:45.120Z,13.67
2024-01-29T15:02:18.868Z,15.10
2024-01-29T15:04:49.145Z,14.43
2024-01-29T15:07:17.858Z,12.93
2024-01-29T15:09:46.625Z,16.07
2024-01-29T15:12:17.486Z,14.37
2024-01-29T15:14:46.290Z,12.13
2024-01-29T15:17:15.205Z,17.80
2024-01-29T15:19:44.411Z,14.50
2024-01-29T15:22:14.782Z,12.63
2024-01-29T15:24:43.711Z,13.30
2024-01-29T15:27:12.438Z,15.93
2024-01-29T15:29:43.593Z,16.80
2024-01-29T15:32:12.263Z,11.73
2024-01-29T15:35:07.994Z,16.57
2024-01-29T15:38:02.336Z,15.37
2024-01-29T15:40:34.742Z,16.63
2024-01-29T15:43:04.570Z,15.63
2024-01-29T15:45:38.911Z,16.87
2024-01-29T15:48:07.910Z,14.77
2024-01-29T15:50:36.340Z,20.03
2024-01-29T15:53:04.989Z,17.67
2024-01-29T15:55:38.924Z,19.93
2024-01-29T15:58:10.041Z,16.27
2024-01-29T16:00:39.403Z,17.70
2024-01-29T16:03:07.985Z,20.73
2024-01-29T16:05:36.571Z,14.13
2024-01-29T16:08:10.468Z,17.53
2024-01-29T16:10:40.440Z,19.07
2024-01-29T16:13:09.298Z,16.23
2024-01-29T16:15:38.315Z,17.80
2024-01-29T16:18:09.406Z,17.70
2024-01-29T16:20:42.236Z,17.83
2024-01-29T16:23:11.030Z,16.97
2024-01-29T16:25:41.161Z,15.60
2024-01-29T16:28:12.716Z,16.17
2024-01-29T16:30:41.260Z,13.90
2024-01-29T16:33:10.449Z,13.97
2024-01-29T16:35:38.965Z,18.77
2024-01-29T16:38:07.774Z,16.47
2024-01-29T16:40:36.325Z,17.67
2024-01-29T16:43:06.542Z,18.93
2024-01-29T16:45:36.172Z,16.73
2024-01-29T16:48:04.828Z,16.07
2024-01-29T16:50:33.254Z,17.13
2024-01-29T16:53:01.696Z,10.83
2024-01-29T16:55:30.216Z,17.33
2024-01-29T16:57:58.686Z,25.07
2024-01-29T17:00:29.145Z,13.33
2024-01-29T17:02:57.603Z,19.40
2024-01-29T17:05:27.256Z,17.13
2024-01-29T17:07:55.927Z,18.33
2024-01-29T17:10:24.864Z,18.03
2024-01-29T17:12:53.573Z,16.43
2024-01-29T17:15:22.061Z,17.13
2024-01-29T17:17:51.923Z,17.00
2024-01-29T17:20:20.847Z,8.20
2024-01-29T17:22:49.408Z,18.53
2024-01-29T17:25:18.986Z,20.93
2024-01-29T17:27:47.605Z,14.63
2024-01-29T17:30:18.104Z,18.37
2024-01-29T17:32:46.667Z,14.50
2024-01-29T17:35:16.803Z,15.13
2024-01-29T17:37:45.450Z,13.73
2024-01-29T17:40:14.044Z,19.30
2024-01-29T17:42:42.526Z,14.33
2024-01-29T17:45:11.319Z,16.80
2024-01-29T17:47:39.796Z,15.70
2024-01-29T17:50:10.837Z,17.53
2024-01-29T17:52:40.712Z,16.67
2024-01-29T17:55:09.369Z,18.83
2024-01-29T17:57:37.988Z,20.30
2024-01-29T18:00:06.903Z,18.33
2024-01-29T18:02:36.246Z,19.93
2024-01-29T18:05:04.745Z,18.67
2024-01-29T18:07:33.224Z,17.30
2024-01-29T18:10:03.145Z,18.10
2024-01-29T18:12:40.707Z,13.93
2024-01-29T18:15:09.422Z,15.50
2024-01-29T18:17:37.960Z,8.83
2024-01-29T18:20:06.846Z,18.33
2024-01-29T18:22:35.457Z,22.70
2024-01-29T18:25:06.547Z,17.90
2024-01-29T18:27:36.982Z,19.00
2024-01-29T18:30:08.713Z,19.90
2024-01-29T18:32:37.724Z,20.47
2024-01-29T18:35:06.683Z,18.70
2024-01-29T18:37:39.286Z,19.33
2024-01-29T18:40:11.202Z,21.73
2024-01-29T18:42:39.906Z,19.03
2024-01-29T18:45:09.038Z,15.40
2024-01-29T18:47:37.604Z,22.37
2024-01-29T18:50:06.484Z,21.97
2024-01-29T18:52:35.141Z,10.77
2024-01-29T18:55:03.612Z,15.47
2024-01-29T18:57:33.670Z,18.90
2024-01-29T19:00:02.167Z,13.83
2024-01-29T19:02:30.624Z,9.73
2024-01-29T19:04:59.095Z,14.73
2024-01-29T19:07:27.542Z,15.30
2024-01-29T19:09:56.071Z,12.13
2024-01-29T19:12:24.525Z,9.47
2024-01-29T19:14:54.393Z,18.77
2024-01-29T19:17:22.841Z,19.13
2024-01-29T19:19:51.380Z,4.07
2024-01-29T19:22:20.560Z,8.40
2024-01-29T19:24:49.132Z,18.93
2024-01-29T19:27:19.574Z,20.43
2024-01-29T19:29:48.074Z,19.03
2024-01-29T19:32:17.975Z,24.17
2024-01-29T19:34:48.375Z,20.23
2024-01-29T19:37:21.362Z,22.17
2024-01-29T19:39:50.928Z,22.97
2024-01-29T19:42:19.425Z,20.33
2024-01-29T19:44:47.914Z,18.53
2024-01-29T19:47:17.829Z,23.33
2024-01-29T19:49:47.614Z,16.27
2024-01-29T19:52:16.377Z,22.57
2024-01-29T19:54:45.384Z,22.53
2024-01-29T19:57:13.850Z,22.40
2024-01-29T19:59:42.462Z,22.23
2024-01-29T20:02:11.130Z,21.47
2024-01-29T20:04:41.254Z,20.17
2024-01-29T20:07:09.834Z,22.13
2024-01-29T20:09:38.277Z,21.60
2024-01-29T20:12:06.986Z,25.80
2024-01-29T20:14:35.859Z,20.20
2024-01-29T20:17:04.402Z,18.57
2024-01-29T20:19:33.506Z,15.03
2024-01-29T20:22:03.457Z,20.57
2024-01-29T20:24:32.156Z,15.50
2024-01-29T20:27:00.827Z,19.80
2024-01-29T20:29:29.395Z,20.53
2024-01-29T20:31:58.020Z,19.37
2024-01-29T20:34:26.491Z,21.63
2024-01-29T20:36:55.110Z,13.67
2024-01-29T20:39:26.580Z,16.33
2024-01-29T20:41:56.190Z,21.90
2024-01-29T20:44:24.892Z,20.70
2024-01-29T20:46:54.011Z,20.03
2024-01-29T20:49:23.260Z,17.17
2024-01-29T20:51:51.925Z,17.80
2024-01-29T20:54:22.261Z,18.97
2024-01-29T20:56:52.290Z,26.77
2024-01-29T20:59:21.085Z,8.23
2024-01-29T21:01:49.616Z,22.40
2024-01-29T21:04:18.276Z,19.93
2024-01-29T21:06:46.887Z,23.27
2024-01-29T21:09:15.472Z,6.80
2024-01-29T21:11:44.989Z,16.60
2024-01-29T21:14:14.809Z,19.83
2024-01-29T21:16:43.305Z,17.33
2024-01-29T21:19:12.075Z,23.70
2024-01-29T21:21:43.519Z,19.63
2024-01-29T21:24:12.167Z,19.70
2024-01-29T21:26:43.173Z,25.17
2024-01-29T21:29:11.658Z,23.13
2024-01-29T21:31:41.504Z,17.10
2024-01-29T21:34:10.014Z,25.77
2024-01-29T21:36:38.717Z,21.77
2024-01-29T21:39:07.183Z,22.67
2024-01-29T21:41:35.563Z,22.77
2024-01-29T21:44:03.960Z,21.10
2024-01-29T21:46:32.583Z,19.97
2024-01-29T21:49:02.735Z,22.33
2024-01-29T21:51:35.141Z,24.00
2024-01-29T21:54:03.637Z,25.10
2024-01-29T21:56:38.600Z,26.40
2024-01-29T21:59:09.475Z,19.37
2024-01-29T22:01:41.291Z,25.00
2024-01-29T22:04:11.686Z,21.17
2024-01-29T22:06:40.354Z,25.07
2024-01-29T22:09:08.986Z,26.70
2024-01-29T22:11:38.208Z,28.33
2024-01-29T22:14:07.195Z,23.13
2024-01-29T22:16:35.794Z,28.23
2024-01-29T22:19:03.351Z,27.07
2024-01-29T22:21:33.332Z,29.13
2024-01-29T22:24:01.808Z,23.17
2024-01-29T22:26:30.766Z,29.77
2024-01-29T22:28:59.709Z,22.87
2024-01-29T22:31:28.226Z,28.47
2024-01-29T22:33:57.008Z,29.40
2024-01-29T22:36:28.973Z,31.03
2024-01-29T22:38:59.342Z,22.53
2024-01-29T22:41:28.294Z,34.47
2024-01-29T22:43:56.747Z,30.43
2024-01-29T22:46:25.365Z,31.23
2024-01-29T22:48:55.029Z,30.13
2024-01-29T22:51:23.508Z,26.07
2024-01-29T22:53:52.178Z,25.60
2024-01-29T22:56:22.492Z,24.33
2024-01-29T22:58:50.968Z,24.50
2024-01-29T23:01:22.469Z,27.23
2024-01-29T23:03:50.963Z,29.47
2024-01-29T23:06:19.442Z,23.57
2024-01-29T23:08:51.139Z,33.03
2024-01-29T23:11:19.609Z,27.07
2024-01-29T23:13:49.465Z,29.30
2024-01-29T23:16:17.984Z,29.93
2024-01-29T23:18:48.621Z,36.30
2024-01-29T23:21:17.187Z,28.30
2024-01-29T23:23:46.029Z,27.53
2024-01-29T23:26:14.583Z,28.50
2024-01-29T23:28:43.165Z,26.07
2024-01-29T23:31:13.055Z,27.13
2024-01-29T23:33:42.248Z,36.87
2024-01-29T23:36:10.873Z,33.07
2024-01-29T23:38:39.958Z,33.63
2024-01-29T23:41:08.478Z,37.17
2024-01-29T23:43:36.873Z,34.00
2024-01-29T23:46:05.631Z,31.70
2024-01-29T23:48:35.702Z,29.17
2024-01-29T23:51:04.182Z,33.30
2024-01-29T23:53:32.602Z,33.77
2024-01-29T23:56:01.056Z,36.97
2024-01-29T23:58:29.644Z,28.43
